sensor_id;sensor_type;location;lat;lon;timestamp;pressure;altitude;pressure_sealevel;temperature;humidity
62057;BME280;48016;50.284;18.860;2024-03-07T00:01:04;98655.22;;;2.02;94.01
62057;BME280;48016;50.284;18.860;2024-03-07T00:03:32;98653.98;;;2.00;93.86
62057;BME280;48016;50.284;18.860;2024-03-07T00:05:58;98658.48;;;1.99;93.79
62057;BME280;48016;50.284;18.860;2024-03-07T00:08:24;98657.88;;;1.96;93.95
62057;BME280;48016;50.284;18.860;2024-03-07T00:10:50;98656.33;;;1.96;93.88
62057;BME280;48016;50.284;18.860;2024-03-07T00:13:17;98658.90;;;1.99;93.87
62057;BME280;48016;50.284;18.860;2024-03-07T00:15:42;98657.01;;;1.99;93.61
62057;BME280;48016;50.284;18.860;2024-03-07T00:18:08;98659.28;;;1.98;93.47
62057;BME280;48016;50.284;18.860;2024-03-07T00:20:36;98658.09;;;1.97;93.47
62057;BME280;48016;50.284;18.860;2024-03-07T00:23:02;98665.73;;;1.97;93.31
62057;BME280;48016;50.284;18.860;2024-03-07T00:25:28;98659.70;;;1.97;93.30
62057;BME280;48016;50.284;18.860;2024-03-07T00:27:57;98660.76;;;2.01;93.34
62057;BME280;48016;50.284;18.860;2024-03-07T00:30:28;98654.84;;;2.04;93.25
62057;BME280;48016;50.284;18.860;2024-03-07T00:32:55;98658.01;;;2.09;93.10
62057;BME280;48016;50.284;18.860;2024-03-07T00:35:24;98655.60;;;2.07;92.81
62057;BME280;48016;50.284;18.860;2024-03-07T00:37:50;98653.40;;;2.08;92.82
62057;BME280;48016;50.284;18.860;2024-03-07T00:40:16;98652.91;;;2.04;92.64
62057;BME280;48016;50.284;18.860;2024-03-07T00:42:42;98649.98;;;2.02;92.67
62057;BME280;48016;50.284;18.860;2024-03-07T00:45:08;98650.29;;;2.00;92.64
62057;BME280;48016;50.284;18.860;2024-03-07T00:47:34;98651.06;;;1.99;92.59
62057;BME280;48016;50.284;18.860;2024-03-07T00:50:00;98649.23;;;1.98;92.34
62057;BME280;48016;50.284;18.860;2024-03-07T00:52:26;98649.00;;;1.97;92.26
62057;BME280;48016;50.284;18.860;2024-03-07T00:54:52;98649.85;;;2.00;92.35
62057;BME280;48016;50.284;18.860;2024-03-07T00:57:18;98647.64;;;1.98;92.16
62057;BME280;48016;50.284;18.860;2024-03-07T00:59:44;98648.95;;;1.99;92.33
62057;BME280;48016;50.284;18.860;2024-03-07T01:02:12;98647.74;;;2.00;92.34
62057;BME280;48016;50.284;18.860;2024-03-07T01:04:38;98647.60;;;2.03;92.33
62057;BME280;48016;50.284;18.860;2024-03-07T01:07:04;98650.30;;;2.05;92.33
62057;BME280;48016;50.284;18.860;2024-03-07T01:09:29;98649.81;;;2.06;92.30
62057;BME280;48016;50.284;18.860;2024-03-07T01:11:55;98650.39;;;2.08;92.34
62057;BME280;48016;50.284;18.860;2024-03-07T01:14:22;98646.39;;;2.10;91.95
62057;BME280;48016;50.284;18.860;2024-03-07T01:16:48;98645.48;;;2.05;91.91
62057;BME280;48016;50.284;18.860;2024-03-07T01:19:14;98645.38;;;2.01;91.93
62057;BME280;48016;50.284;18.860;2024-03-07T01:21:40;98641.67;;;1.96;91.92
62057;BME280;48016;50.284;18.860;2024-03-07T01:24:06;98641.55;;;1.94;91.98
62057;BME280;48016;50.284;18.860;2024-03-07T01:26:32;98643.27;;;1.95;91.94
62057;BME280;48016;50.284;18.860;2024-03-07T01:29:01;98639.54;;;1.96;91.93
62057;BME280;48016;50.284;18.860;2024-03-07T01:31:28;98638.73;;;1.96;91.98
62057;BME280;48016;50.284;18.860;2024-03-07T01:33:54;98642.25;;;1.96;92.00
62057;BME280;48016;50.284;18.860;2024-03-07T01:36:20;98641.07;;;1.97;91.59
62057;BME280;48016;50.284;18.860;2024-03-07T01:38:46;98642.16;;;1.91;91.58
62057;BME280;48016;50.284;18.860;2024-03-07T01:41:12;98641.48;;;1.89;91.54
62057;BME280;48016;50.284;18.860;2024-03-07T01:43:41;98642.80;;;1.87;91.48
62057;BME280;48016;50.284;18.860;2024-03-07T01:46:07;98640.07;;;1.86;91.53
62057;BME280;48016;50.284;18.860;2024-03-07T01:48:34;98637.80;;;1.86;91.51
62057;BME280;48016;50.284;18.860;2024-03-07T01:51:00;98635.10;;;1.86;91.51
62057;BME280;48016;50.284;18.860;2024-03-07T01:53:27;98635.67;;;1.86;91.55
62057;BME280;48016;50.284;18.860;2024-03-07T01:55:54;98636.20;;;1.86;91.75
62057;BME280;48016;50.284;18.860;2024-03-07T01:58:21;98630.09;;;1.85;91.69
62057;BME280;48016;50.284;18.860;2024-03-07T02:00:47;98631.46;;;1.87;91.88
62057;BME280;48016;50.284;18.860;2024-03-07T02:03:16;98629.17;;;1.88;91.75
62057;BME280;48016;50.284;18.860;2024-03-07T02:05:42;98626.70;;;1.91;91.68
62057;BME280;48016;50.284;18.860;2024-03-07T02:08:09;98624.21;;;1.94;91.69
62057;BME280;48016;50.284;18.860;2024-03-07T02:10:35;98625.22;;;1.95;91.66
62057;BME280;48016;50.284;18.860;2024-03-07T02:13:01;98626.70;;;1.95;91.61
62057;BME280;48016;50.284;18.860;2024-03-07T02:15:27;98626.44;;;1.93;91.38
62057;BME280;48016;50.284;18.860;2024-03-07T02:17:53;98622.34;;;1.90;91.47
62057;BME280;48016;50.284;18.860;2024-03-07T02:20:19;98624.00;;;1.88;91.54
62057;BME280;48016;50.284;18.860;2024-03-07T02:22:45;98622.60;;;1.87;91.52
62057;BME280;48016;50.284;18.860;2024-03-07T02:25:11;98619.95;;;1.85;91.45
62057;BME280;48016;50.284;18.860;2024-03-07T02:27:38;98623.27;;;1.84;91.26
62057;BME280;48016;50.284;18.860;2024-03-07T02:30:04;98622.48;;;1.82;91.27
62057;BME280;48016;50.284;18.860;2024-03-07T02:32:37;98623.08;;;1.80;91.18
62057;BME280;48016;50.284;18.860;2024-03-07T02:35:06;98622.02;;;1.77;91.06
62057;BME280;48016;50.284;18.860;2024-03-07T02:37:34;98617.95;;;1.72;91.18
62057;BME280;48016;50.284;18.860;2024-03-07T02:40:00;98619.48;;;1.72;91.26
62057;BME280;48016;50.284;18.860;2024-03-07T02:42:27;98617.23;;;1.73;91.32
62057;BME280;48016;50.284;18.860;2024-03-07T02:44:52;98614.82;;;1.75;91.06
62057;BME280;48016;50.284;18.860;2024-03-07T02:47:18;98610.10;;;1.74;91.01
62057;BME280;48016;50.284;18.860;2024-03-07T02:49:44;98608.05;;;1.75;91.04
62057;BME280;48016;50.284;18.860;2024-03-07T02:52:10;98611.32;;;1.77;90.96
62057;BME280;48016;50.284;18.860;2024-03-07T02:54:36;98613.45;;;1.78;90.81
62057;BME280;48016;50.284;18.860;2024-03-07T02:57:03;98617.21;;;1.81;90.65
62057;BME280;48016;50.284;18.860;2024-03-07T02:59:28;98618.14;;;1.83;90.50
62057;BME280;48016;50.284;18.860;2024-03-07T03:01:54;98615.73;;;1.85;90.31
62057;BME280;48016;50.284;18.860;2024-03-07T03:04:21;98614.41;;;1.86;90.10
62057;BME280;48016;50.284;18.860;2024-03-07T03:06:47;98618.73;;;1.85;89.90
62057;BME280;48016;50.284;18.860;2024-03-07T03:09:13;98616.95;;;1.84;89.77
62057;BME280;48016;50.284;18.860;2024-03-07T03:11:46;98619.19;;;1.81;89.84
62057;BME280;48016;50.284;18.860;2024-03-07T03:14:12;98618.10;;;1.80;89.84
62057;BME280;48016;50.284;18.860;2024-03-07T03:16:42;98620.02;;;1.79;89.94
62057;BME280;48016;50.284;18.860;2024-03-07T03:19:10;98626.91;;;1.75;89.84
62057;BME280;48016;50.284;18.860;2024-03-07T03:21:36;98625.32;;;1.72;89.85
62057;BME280;48016;50.284;18.860;2024-03-07T03:24:03;98626.52;;;1.71;90.00
62057;BME280;48016;50.284;18.860;2024-03-07T03:26:31;98629.85;;;1.72;89.98
62057;BME280;48016;50.284;18.860;2024-03-07T03:28:57;98627.68;;;1.73;90.09
62057;BME280;48016;50.284;18.860;2024-03-07T03:31:24;98625.33;;;1.70;89.89
62057;BME280;48016;50.284;18.860;2024-03-07T03:33:50;98626.98;;;1.68;89.96
62057;BME280;48016;50.284;18.860;2024-03-07T03:36:16;98625.30;;;1.65;89.84
62057;BME280;48016;50.284;18.860;2024-03-07T03:38:42;98624.17;;;1.62;89.77
62057;BME280;48016;50.284;18.860;2024-03-07T03:41:08;98624.66;;;1.61;89.70
62057;BME280;48016;50.284;18.860;2024-03-07T03:43:34;98624.86;;;1.60;89.82
62057;BME280;48016;50.284;18.860;2024-03-07T03:46:00;98625.02;;;1.58;89.50
62057;BME280;48016;50.284;18.860;2024-03-07T03:48:28;98623.27;;;1.58;89.64
62057;BME280;48016;50.284;18.860;2024-03-07T03:50:54;98622.38;;;1.60;89.58
62057;BME280;48016;50.284;18.860;2024-03-07T03:53:20;98628.00;;;1.60;89.33
62057;BME280;48016;50.284;18.860;2024-03-07T03:55:45;98626.70;;;1.59;89.49
62057;BME280;48016;50.284;18.860;2024-03-07T03:58:11;98631.52;;;1.59;89.42
62057;BME280;48016;50.284;18.860;2024-03-07T04:00:37;98627.45;;;1.59;89.19
62057;BME280;48016;50.284;18.860;2024-03-07T04:03:04;98631.92;;;1.56;88.86
62057;BME280;48016;50.284;18.860;2024-03-07T04:05:31;98630.41;;;1.52;88.91
62057;BME280;48016;50.284;18.860;2024-03-07T04:07:57;98631.01;;;1.50;88.66
62057;BME280;48016;50.284;18.860;2024-03-07T04:10:24;98633.20;;;1.47;88.63
62057;BME280;48016;50.284;18.860;2024-03-07T04:12:50;98632.91;;;1.45;88.56
62057;BME280;48016;50.284;18.860;2024-03-07T04:15:18;98638.98;;;1.40;88.23
62057;BME280;48016;50.284;18.860;2024-03-07T04:17:44;98638.12;;;1.37;88.38
62057;BME280;48016;50.284;18.860;2024-03-07T04:20:12;98637.34;;;1.33;88.44
62057;BME280;48016;50.284;18.860;2024-03-07T04:22:39;98639.39;;;1.34;88.40
62057;BME280;48016;50.284;18.860;2024-03-07T04:25:06;98638.33;;;1.37;88.49
62057;BME280;48016;50.284;18.860;2024-03-07T04:27:33;98643.51;;;1.37;87.85
62057;BME280;48016;50.284;18.860;2024-03-07T04:30:03;98641.09;;;1.27;87.19
62057;BME280;48016;50.284;18.860;2024-03-07T04:32:30;98643.23;;;1.29;87.53
62057;BME280;48016;50.284;18.860;2024-03-07T04:34:56;98643.53;;;1.26;87.53
62057;BME280;48016;50.284;18.860;2024-03-07T04:37:26;98645.67;;;1.24;87.56
62057;BME280;48016;50.284;18.860;2024-03-07T04:39:55;98646.84;;;1.24;87.66
62057;BME280;48016;50.284;18.860;2024-03-07T04:42:21;98648.21;;;1.24;87.64
62057;BME280;48016;50.284;18.860;2024-03-07T04:44:47;98647.25;;;1.22;87.64
62057;BME280;48016;50.284;18.860;2024-03-07T04:47:13;98644.34;;;1.20;87.43
62057;BME280;48016;50.284;18.860;2024-03-07T04:49:39;98641.52;;;1.16;87.36
62057;BME280;48016;50.284;18.860;2024-03-07T04:52:06;98645.43;;;1.15;87.59
62057;BME280;48016;50.284;18.860;2024-03-07T04:54:32;98650.24;;;1.17;87.63
62057;BME280;48016;50.284;18.860;2024-03-07T04:56:59;98649.72;;;1.16;87.48
62057;BME280;48016;50.284;18.860;2024-03-07T04:59:25;98656.92;;;1.09;87.31
62057;BME280;48016;50.284;18.860;2024-03-07T05:01:51;98653.61;;;1.00;87.31
62057;BME280;48016;50.284;18.860;2024-03-07T05:04:18;98655.27;;;0.97;87.52
62057;BME280;48016;50.284;18.860;2024-03-07T05:06:45;98653.36;;;0.97;87.61
62057;BME280;48016;50.284;18.860;2024-03-07T05:09:13;98660.89;;;0.94;87.75
62057;BME280;48016;50.284;18.860;2024-03-07T05:11:49;98656.73;;;0.93;87.85
62057;BME280;48016;50.284;18.860;2024-03-07T05:14:21;98656.61;;;0.93;87.70
62057;BME280;48016;50.284;18.860;2024-03-07T05:16:51;98658.30;;;0.89;87.52
62057;BME280;48016;50.284;18.860;2024-03-07T05:19:34;98654.19;;;0.88;87.78
62057;BME280;48016;50.284;18.860;2024-03-07T05:22:02;98655.05;;;0.91;87.66
62057;BME280;48016;50.284;18.860;2024-03-07T05:24:31;98662.91;;;0.93;87.65
62057;BME280;48016;50.284;18.860;2024-03-07T05:26:58;98660.30;;;0.93;87.72
62057;BME280;48016;50.284;18.860;2024-03-07T05:29:24;98671.27;;;0.86;87.31
62057;BME280;48016;50.284;18.860;2024-03-07T05:31:50;98670.05;;;0.80;87.37
62057;BME280;48016;50.284;18.860;2024-03-07T05:34:16;98666.80;;;0.77;87.49
62057;BME280;48016;50.284;18.860;2024-03-07T05:36:45;98670.14;;;0.76;87.37
62057;BME280;48016;50.284;18.860;2024-03-07T05:39:13;98668.86;;;0.75;87.59
62057;BME280;48016;50.284;18.860;2024-03-07T05:41:40;98670.45;;;0.75;87.49
62057;BME280;48016;50.284;18.860;2024-03-07T05:44:06;98672.23;;;0.76;87.64
62057;BME280;48016;50.284;18.860;2024-03-07T05:46:38;98678.48;;;0.75;87.36
62057;BME280;48016;50.284;18.860;2024-03-07T05:49:08;98679.98;;;0.79;87.56
62057;BME280;48016;50.284;18.860;2024-03-07T05:51:34;98677.89;;;0.79;87.35
62057;BME280;48016;50.284;18.860;2024-03-07T05:54:00;98674.77;;;0.79;87.31
62057;BME280;48016;50.284;18.860;2024-03-07T05:56:26;98675.35;;;0.79;87.23
62057;BME280;48016;50.284;18.860;2024-03-07T05:58:53;98678.20;;;0.77;87.16
62057;BME280;48016;50.284;18.860;2024-03-07T06:01:19;98675.67;;;0.76;87.28
62057;BME280;48016;50.284;18.860;2024-03-07T06:03:45;98674.68;;;0.75;87.31
62057;BME280;48016;50.284;18.860;2024-03-07T06:06:12;98671.48;;;0.74;87.28
62057;BME280;48016;50.284;18.860;2024-03-07T06:08:38;98679.98;;;0.77;87.22
62057;BME280;48016;50.284;18.860;2024-03-07T06:11:08;98687.42;;;0.79;87.16
62057;BME280;48016;50.284;18.860;2024-03-07T06:13:34;98682.46;;;0.76;87.04
62057;BME280;48016;50.284;18.860;2024-03-07T06:16:00;98683.81;;;0.78;87.35
62057;BME280;48016;50.284;18.860;2024-03-07T06:18:31;98695.08;;;0.81;87.14
62057;BME280;48016;50.284;18.860;2024-03-07T06:20:57;98695.23;;;0.78;87.10
62057;BME280;48016;50.284;18.860;2024-03-07T06:23:23;98689.43;;;0.78;87.29
62057;BME280;48016;50.284;18.860;2024-03-07T06:25:49;98691.98;;;0.82;87.06
62057;BME280;48016;50.284;18.860;2024-03-07T06:28:20;98693.17;;;0.85;87.03
62057;BME280;48016;50.284;18.860;2024-03-07T06:30:46;98693.24;;;0.88;87.11
62057;BME280;48016;50.284;18.860;2024-03-07T06:33:13;98696.63;;;0.89;87.03
62057;BME280;48016;50.284;18.860;2024-03-07T06:35:39;98698.88;;;0.90;86.98
62057;BME280;48016;50.284;18.860;2024-03-07T06:38:08;98697.78;;;0.90;86.62
62057;BME280;48016;50.284;18.860;2024-03-07T06:40:34;98700.23;;;0.89;86.43
62057;BME280;48016;50.284;18.860;2024-03-07T06:43:00;98699.15;;;0.86;86.49
62057;BME280;48016;50.284;18.860;2024-03-07T06:45:26;98700.51;;;0.94;86.49
62057;BME280;48016;50.284;18.860;2024-03-07T06:47:52;98703.31;;;0.99;86.25
62057;BME280;48016;50.284;18.860;2024-03-07T06:50:18;98706.93;;;0.97;85.84
62057;BME280;48016;50.284;18.860;2024-03-07T06:52:46;98706.88;;;0.96;85.67
62057;BME280;48016;50.284;18.860;2024-03-07T06:55:15;98706.91;;;0.92;85.42
62057;BME280;48016;50.284;18.860;2024-03-07T06:57:45;98706.56;;;0.94;85.67
62057;BME280;48016;50.284;18.860;2024-03-07T07:00:12;98706.80;;;0.96;85.47
62057;BME280;48016;50.284;18.860;2024-03-07T07:02:40;98707.98;;;0.96;85.29
62057;BME280;48016;50.284;18.860;2024-03-07T07:05:07;98702.83;;;0.97;85.42
62057;BME280;48016;50.284;18.860;2024-03-07T07:07:42;98703.84;;;1.02;85.74
62057;BME280;48016;50.284;18.860;2024-03-07T07:10:09;98705.98;;;1.08;85.44
62057;BME280;48016;50.284;18.860;2024-03-07T07:12:42;98702.86;;;1.13;85.48
62057;BME280;48016;50.284;18.860;2024-03-07T07:15:13;98708.33;;;1.18;85.15
62057;BME280;48016;50.284;18.860;2024-03-07T07:17:42;98709.19;;;1.18;84.86
62057;BME280;48016;50.284;18.860;2024-03-07T07:20:11;98708.61;;;1.18;84.78
62057;BME280;48016;50.284;18.860;2024-03-07T07:22:40;98708.70;;;1.14;84.57
62057;BME280;48016;50.284;18.860;2024-03-07T07:25:06;98705.34;;;1.11;84.40
62057;BME280;48016;50.284;18.860;2024-03-07T07:27:43;98708.38;;;1.09;84.51
62057;BME280;48016;50.284;18.860;2024-03-07T07:30:11;98712.16;;;1.10;84.68
62057;BME280;48016;50.284;18.860;2024-03-07T07:32:37;98711.53;;;1.09;84.29
62057;BME280;48016;50.284;18.860;2024-03-07T07:35:05;98707.21;;;1.06;84.37
62057;BME280;48016;50.284;18.860;2024-03-07T07:37:40;98708.70;;;1.07;84.32
62057;BME280;48016;50.284;18.860;2024-03-07T07:40:14;98704.55;;;1.08;84.46
62057;BME280;48016;50.284;18.860;2024-03-07T07:42:41;98708.45;;;1.11;84.44
62057;BME280;48016;50.284;18.860;2024-03-07T07:45:11;98708.14;;;1.10;84.27
62057;BME280;48016;50.284;18.860;2024-03-07T07:47:38;98708.55;;;1.10;84.32
62057;BME280;48016;50.284;18.860;2024-03-07T07:50:17;98707.58;;;1.13;84.13
62057;BME280;48016;50.284;18.860;2024-03-07T07:52:49;98701.30;;;1.19;84.27
62057;BME280;48016;50.284;18.860;2024-03-07T07:55:19;98704.95;;;1.23;84.21
62057;BME280;48016;50.284;18.860;2024-03-07T07:57:47;98707.21;;;1.30;84.35
62057;BME280;48016;50.284;18.860;2024-03-07T08:00:15;98707.80;;;1.32;84.48
62057;BME280;48016;50.284;18.860;2024-03-07T08:02:59;98707.52;;;1.38;84.53
62057;BME280;48016;50.284;18.860;2024-03-07T08:05:30;98707.42;;;1.41;84.22
62057;BME280;48016;50.284;18.860;2024-03-07T08:08:00;98713.03;;;1.41;83.96
62057;BME280;48016;50.284;18.860;2024-03-07T08:10:28;98705.85;;;1.43;84.02
62057;BME280;48016;50.284;18.860;2024-03-07T08:12:55;98710.02;;;1.45;84.06
62057;BME280;48016;50.284;18.860;2024-03-07T08:15:21;98714.29;;;1.45;83.89
62057;BME280;48016;50.284;18.860;2024-03-07T08:17:48;98710.09;;;1.41;83.87
62057;BME280;48016;50.284;18.860;2024-03-07T08:20:15;98712.55;;;1.44;84.01
62057;BME280;48016;50.284;18.860;2024-03-07T08:22:44;98714.70;;;1.46;83.99
62057;BME280;48016;50.284;18.860;2024-03-07T08:25:11;98714.99;;;1.46;83.62
62057;BME280;48016;50.284;18.860;2024-03-07T08:27:38;98713.65;;;1.50;83.76
62057;BME280;48016;50.284;18.860;2024-03-07T08:30:05;98721.02;;;1.49;83.58
62057;BME280;48016;50.284;18.860;2024-03-07T08:32:43;98720.92;;;1.51;83.42
62057;BME280;48016;50.284;18.860;2024-03-07T08:35:09;98723.31;;;1.52;83.36
62057;BME280;48016;50.284;18.860;2024-03-07T08:37:41;98727.55;;;1.51;83.27
62057;BME280;48016;50.284;18.860;2024-03-07T08:40:08;98724.67;;;1.53;83.37
62057;BME280;48016;50.284;18.860;2024-03-07T08:42:37;98729.27;;;1.56;83.37
62057;BME280;48016;50.284;18.860;2024-03-07T08:45:04;98731.04;;;1.57;83.62
62057;BME280;48016;50.284;18.860;2024-03-07T08:47:34;98732.48;;;1.60;83.37
62057;BME280;48016;50.284;18.860;2024-03-07T08:50:00;98733.77;;;1.60;83.40
62057;BME280;48016;50.284;18.860;2024-03-07T08:52:27;98735.25;;;1.61;83.36
62057;BME280;48016;50.284;18.860;2024-03-07T08:54:54;98737.64;;;1.60;83.27
62057;BME280;48016;50.284;18.860;2024-03-07T08:57:20;98734.64;;;1.60;82.90
62057;BME280;48016;50.284;18.860;2024-03-07T08:59:47;98737.36;;;1.58;82.84
62057;BME280;48016;50.284;18.860;2024-03-07T09:02:14;98737.69;;;1.61;82.61
62057;BME280;48016;50.284;18.860;2024-03-07T09:04:41;98745.02;;;1.64;82.58
62057;BME280;48016;50.284;18.860;2024-03-07T09:07:07;98742.80;;;1.63;82.38
62057;BME280;48016;50.284;18.860;2024-03-07T09:09:34;98746.88;;;1.69;82.28
62057;BME280;48016;50.284;18.860;2024-03-07T09:12:01;98742.31;;;1.71;81.89
62057;BME280;48016;50.284;18.860;2024-03-07T09:14:27;98741.64;;;1.75;82.17
62057;BME280;48016;50.284;18.860;2024-03-07T09:16:54;98746.89;;;1.76;81.55
62057;BME280;48016;50.284;18.860;2024-03-07T09:19:20;98743.88;;;1.72;81.43
62057;BME280;48016;50.284;18.860;2024-03-07T09:21:53;98745.77;;;1.72;81.62
62057;BME280;48016;50.284;18.860;2024-03-07T09:24:19;98748.65;;;1.72;81.79
62057;BME280;48016;50.284;18.860;2024-03-07T09:26:49;98753.60;;;1.75;81.78
62057;BME280;48016;50.284;18.860;2024-03-07T09:29:16;98751.50;;;1.74;81.50
62057;BME280;48016;50.284;18.860;2024-03-07T09:31:46;98754.92;;;1.76;81.64
62057;BME280;48016;50.284;18.860;2024-03-07T09:34:12;98759.29;;;1.78;81.56
62057;BME280;48016;50.284;18.860;2024-03-07T09:36:39;98757.36;;;1.80;81.67
62057;BME280;48016;50.284;18.860;2024-03-07T09:39:08;98756.55;;;1.85;81.74
62057;BME280;48016;50.284;18.860;2024-03-07T09:41:34;98764.50;;;1.92;81.64
62057;BME280;48016;50.284;18.860;2024-03-07T09:44:01;98761.05;;;1.93;81.60
62057;BME280;48016;50.284;18.860;2024-03-07T09:46:27;98765.39;;;1.98;81.23
62057;BME280;48016;50.284;18.860;2024-03-07T09:48:54;98766.83;;;1.99;80.98
62057;BME280;48016;50.284;18.860;2024-03-07T09:51:21;98767.61;;;1.99;80.97
62057;BME280;48016;50.284;18.860;2024-03-07T09:53:49;98771.50;;;1.97;81.10
62057;BME280;48016;50.284;18.860;2024-03-07T09:56:27;98769.40;;;1.97;81.30
62057;BME280;48016;50.284;18.860;2024-03-07T09:58:58;98770.70;;;1.96;81.31
62057;BME280;48016;50.284;18.860;2024-03-07T10:01:27;98766.92;;;2.03;81.57
62057;BME280;48016;50.284;18.860;2024-03-07T10:03:59;98766.65;;;2.05;81.30
62057;BME280;48016;50.284;18.860;2024-03-07T10:06:36;98769.15;;;2.05;80.98
62057;BME280;48016;50.284;18.860;2024-03-07T10:09:02;98774.14;;;2.00;80.98
62057;BME280;48016;50.284;18.860;2024-03-07T10:11:29;98777.45;;;1.98;80.88
62057;BME280;48016;50.284;18.860;2024-03-07T10:13:55;98774.00;;;1.93;80.74
62057;BME280;48016;50.284;18.860;2024-03-07T10:16:21;98778.48;;;1.90;80.90
62057;BME280;48016;50.284;18.860;2024-03-07T10:18:48;98776.18;;;1.84;80.63
62057;BME280;48016;50.284;18.860;2024-03-07T10:21:21;98777.86;;;1.88;81.15
62057;BME280;48016;50.284;18.860;2024-03-07T10:23:50;98769.50;;;1.92;81.07
62057;BME280;48016;50.284;18.860;2024-03-07T10:26:18;98770.74;;;1.96;81.21
62057;BME280;48016;50.284;18.860;2024-03-07T10:28:45;98770.16;;;2.04;81.42
62057;BME280;48016;50.284;18.860;2024-03-07T10:31:11;98770.45;;;2.14;81.06
62057;BME280;48016;50.284;18.860;2024-03-07T10:33:39;98763.84;;;2.17;80.19
62057;BME280;48016;50.284;18.860;2024-03-07T10:36:05;98769.40;;;2.24;79.97
62057;BME280;48016;50.284;18.860;2024-03-07T10:38:37;98771.16;;;2.28;79.13
62057;BME280;48016;50.284;18.860;2024-03-07T10:41:04;98770.69;;;2.34;79.24
62057;BME280;48016;50.284;18.860;2024-03-07T10:43:35;98774.16;;;2.41;78.65
62057;BME280;48016;50.284;18.860;2024-03-07T10:46:05;98769.20;;;2.40;78.54
62057;BME280;48016;50.284;18.860;2024-03-07T10:48:36;98775.20;;;2.38;78.28
62057;BME280;48016;50.284;18.860;2024-03-07T10:51:14;98777.30;;;2.34;78.19
62057;BME280;48016;50.284;18.860;2024-03-07T10:54:04;98773.25;;;2.41;78.62
62057;BME280;48016;50.284;18.860;2024-03-07T10:59:18;98772.83;;;2.81;78.85
62057;BME280;48016;50.284;18.860;2024-03-07T11:01:53;98776.11;;;2.92;78.42
62057;BME280;48016;50.284;18.860;2024-03-07T11:04:22;98775.52;;;2.88;77.49
62057;BME280;48016;50.284;18.860;2024-03-07T11:06:48;98770.18;;;2.95;78.17
62057;BME280;48016;50.284;18.860;2024-03-07T11:09:15;98771.15;;;2.97;77.33
62057;BME280;48016;50.284;18.860;2024-03-07T11:11:49;98773.08;;;2.93;77.32
62057;BME280;48016;50.284;18.860;2024-03-07T11:14:15;98768.55;;;2.97;77.97
62057;BME280;48016;50.284;18.860;2024-03-07T11:16:43;98769.98;;;3.02;77.51
62057;BME280;48016;50.284;18.860;2024-03-07T11:19:19;98765.89;;;3.03;77.20
62057;BME280;48016;50.284;18.860;2024-03-07T11:21:49;98770.61;;;3.08;77.06
62057;BME280;48016;50.284;18.860;2024-03-07T11:24:28;98766.75;;;3.08;76.41
62057;BME280;48016;50.284;18.860;2024-03-07T11:26:56;98767.41;;;3.10;76.85
62057;BME280;48016;50.284;18.860;2024-03-07T11:32:13;98767.70;;;3.10;76.08
62057;BME280;48016;50.284;18.860;2024-03-07T11:34:44;98762.94;;;3.11;76.26
62057;BME280;48016;50.284;18.860;2024-03-07T11:37:20;98761.16;;;3.11;76.19
62057;BME280;48016;50.284;18.860;2024-03-07T11:40:02;98762.90;;;3.13;76.44
62057;BME280;48016;50.284;18.860;2024-03-07T11:42:34;98765.56;;;3.15;76.07
62057;BME280;48016;50.284;18.860;2024-03-07T11:45:02;98767.77;;;3.12;75.37
62057;BME280;48016;50.284;18.860;2024-03-07T11:47:36;98762.78;;;3.07;75.87
62057;BME280;48016;50.284;18.860;2024-03-07T11:50:05;98763.23;;;2.98;75.58
62057;BME280;48016;50.284;18.860;2024-03-07T11:52:36;98764.52;;;2.96;76.20
62057;BME280;48016;50.284;18.860;2024-03-07T11:55:04;98759.40;;;3.04;76.12
62057;BME280;48016;50.284;18.860;2024-03-07T11:57:30;98754.95;;;3.11;76.30
62057;BME280;48016;50.284;18.860;2024-03-07T12:00:00;98751.72;;;3.24;76.48
62057;BME280;48016;50.284;18.860;2024-03-07T12:02:27;98752.64;;;3.36;76.49
62057;BME280;48016;50.284;18.860;2024-03-07T12:04:55;98757.27;;;3.38;75.35
62057;BME280;48016;50.284;18.860;2024-03-07T12:07:20;98752.66;;;3.38;75.38
62057;BME280;48016;50.284;18.860;2024-03-07T12:09:48;98747.04;;;3.41;75.58
62057;BME280;48016;50.284;18.860;2024-03-07T12:12:22;98750.14;;;3.43;75.11
62057;BME280;48016;50.284;18.860;2024-03-07T12:14:48;98745.61;;;3.44;74.78
62057;BME280;48016;50.284;18.860;2024-03-07T12:17:17;98739.11;;;3.44;74.53
62057;BME280;48016;50.284;18.860;2024-03-07T12:19:43;98738.25;;;3.44;74.70
62057;BME280;48016;50.284;18.860;2024-03-07T12:22:11;98737.16;;;3.56;74.91
62057;BME280;48016;50.284;18.860;2024-03-07T12:24:41;98740.66;;;3.58;74.42
62057;BME280;48016;50.284;18.860;2024-03-07T12:27:11;98738.10;;;3.65;74.66
62057;BME280;48016;50.284;18.860;2024-03-07T12:29:41;98737.38;;;3.81;74.61
62057;BME280;48016;50.284;18.860;2024-03-07T12:32:13;98737.02;;;3.85;73.41
62057;BME280;48016;50.284;18.860;2024-03-07T12:34:40;98730.30;;;3.94;73.64
62057;BME280;48016;50.284;18.860;2024-03-07T12:37:11;98733.66;;;4.02;73.16
62057;BME280;48016;50.284;18.860;2024-03-07T12:39:42;98735.77;;;4.04;72.71
62057;BME280;48016;50.284;18.860;2024-03-07T12:42:18;98739.02;;;3.95;71.79
62057;BME280;48016;50.284;18.860;2024-03-07T12:44:46;98741.27;;;3.85;71.92
62057;BME280;48016;50.284;18.860;2024-03-07T12:47:16;98746.21;;;3.79;71.93
62057;BME280;48016;50.284;18.860;2024-03-07T12:49:43;98741.39;;;3.65;71.85
62057;BME280;48016;50.284;18.860;2024-03-07T12:52:11;98739.82;;;3.59;72.27
62057;BME280;48016;50.284;18.860;2024-03-07T12:54:41;98739.02;;;3.57;72.56
62057;BME280;48016;50.284;18.860;2024-03-07T12:57:08;98735.52;;;3.65;72.93
62057;BME280;48016;50.284;18.860;2024-03-07T12:59:35;98739.29;;;3.75;72.37
62057;BME280;48016;50.284;18.860;2024-03-07T13:02:04;98740.80;;;3.69;72.47
62057;BME280;48016;50.284;18.860;2024-03-07T13:04:32;98744.45;;;3.66;72.37
62057;BME280;48016;50.284;18.860;2024-03-07T13:06:58;98749.89;;;3.54;72.24
62057;BME280;48016;50.284;18.860;2024-03-07T13:09:33;98748.58;;;3.45;72.67